sensor_id;sensor_type;location;lat;lon;timestamp;temperature;humidity
26964;DHT22;14521;48.148;-1.656;2024-03-29T00:00:28;18.40;80.80
26964;DHT22;14521;48.148;-1.656;2024-03-29T00:03:49;18.40;80.80
26964;DHT22;14521;48.148;-1.656;2024-03-29T00:07:11;18.40;80.90
26964;DHT22;14521;48.148;-1.656;2024-03-29T00:10:33;18.40;80.80
26964;DHT22;14521;48.148;-1.656;2024-03-29T00:13:54;18.40;80.80
26964;DHT22;14521;48.148;-1.656;2024-03-29T00:17:16;18.40;80.80
26964;DHT22;14521;48.148;-1.656;2024-03-29T00:20:37;18.40;80.90
26964;DHT22;14521;48.148;-1.656;2024-03-29T00:23:59;18.40;80.90
26964;DHT22;14521;48.148;-1.656;2024-03-29T00:27:20;18.40;80.90
26964;DHT22;14521;48.148;-1.656;2024-03-29T00:30:43;18.40;80.90
26964;DHT22;14521;48.148;-1.656;2024-03-29T00:34:05;18.30;81.00
26964;DHT22;14521;48.148;-1.656;2024-03-29T00:37:26;18.30;81.00
26964;DHT22;14521;48.148;-1.656;2024-03-29T00:40:47;18.30;81.00
26964;DHT22;14521;48.148;-1.656;2024-03-29T00:44:08;18.30;81.00
26964;DHT22;14521;48.148;-1.656;2024-03-29T00:47:30;18.30;80.90
26964;DHT22;14521;48.148;-1.656;2024-03-29T00:50:51;18.40;81.00
26964;DHT22;14521;48.148;-1.656;2024-03-29T00:54:12;18.30;81.00
26964;DHT22;14521;48.148;-1.656;2024-03-29T00:57:34;18.30;81.00
26964;DHT22;14521;48.148;-1.656;2024-03-29T01:00:55;18.30;81.00
26964;DHT22;14521;48.148;-1.656;2024-03-29T01:04:17;18.30;80.90
26964;DHT22;14521;48.148;-1.656;2024-03-29T01:07:42;18.30;81.00
26964;DHT22;14521;48.148;-1.656;2024-03-29T01:11:03;18.30;81.00
26964;DHT22;14521;48.148;-1.656;2024-03-29T01:14:25;18.20;81.00
26964;DHT22;14521;48.148;-1.656;2024-03-29T01:17:46;18.30;81.00
26964;DHT22;14521;48.148;-1.656;2024-03-29T01:21:07;18.20;80.90
26964;DHT22;14521;48.148;-1.656;2024-03-29T01:24:29;18.20;81.00
26964;DHT22;14521;48.148;-1.656;2024-03-29T01:27:50;18.20;81.00
26964;DHT22;14521;48.148;-1.656;2024-03-29T01:31:11;18.20;81.00
26964;DHT22;14521;48.148;-1.656;2024-03-29T01:34:35;18.20;81.00
26964;DHT22;14521;48.148;-1.656;2024-03-29T01:37:56;18.20;81.00
26964;DHT22;14521;48.148;-1.656;2024-03-29T01:41:18;18.20;81.00
26964;DHT22;14521;48.148;-1.656;2024-03-29T01:44:39;18.20;81.00
26964;DHT22;14521;48.148;-1.656;2024-03-29T01:48:01;18.20;81.00
26964;DHT22;14521;48.148;-1.656;2024-03-29T01:51:24;18.20;81.00
26964;DHT22;14521;48.148;-1.656;2024-03-29T01:54:46;18.20;81.00
26964;DHT22;14521;48.148;-1.656;2024-03-29T01:58:11;18.20;81.00
26964;DHT22;14521;48.148;-1.656;2024-03-29T02:01:33;18.20;80.90
26964;DHT22;14521;48.148;-1.656;2024-03-29T02:04:55;18.20;81.00
26964;DHT22;14521;48.148;-1.656;2024-03-29T02:08:17;18.20;81.00
26964;DHT22;14521;48.148;-1.656;2024-03-29T02:11:38;18.10;81.00
26964;DHT22;14521;48.148;-1.656;2024-03-29T02:14:59;18.10;80.90
26964;DHT22;14521;48.148;-1.656;2024-03-29T02:18:23;18.20;81.00
26964;DHT22;14521;48.148;-1.656;2024-03-29T02:21:47;18.10;81.00
26964;DHT22;14521;48.148;-1.656;2024-03-29T02:25:10;18.10;80.90
26964;DHT22;14521;48.148;-1.656;2024-03-29T02:28:32;18.10;80.90
26964;DHT22;14521;48.148;-1.656;2024-03-29T02:31:53;18.10;80.90
26964;DHT22;14521;48.148;-1.656;2024-03-29T02:35:14;18.10;81.00
26964;DHT22;14521;48.148;-1.656;2024-03-29T02:38:35;18.10;80.90
26964;DHT22;14521;48.148;-1.656;2024-03-29T02:41:57;18.10;80.90
26964;DHT22;14521;48.148;-1.656;2024-03-29T02:45:18;18.10;81.00
26964;DHT22;14521;48.148;-1.656;2024-03-29T02:48:39;18.10;81.00
26964;DHT22;14521;48.148;-1.656;2024-03-29T02:52:01;18.10;81.00
26964;DHT22;14521;48.148;-1.656;2024-03-29T02:55:22;18.10;81.00
26964;DHT22;14521;48.148;-1.656;2024-03-29T02:58:43;18.00;81.10
26964;DHT22;14521;48.148;-1.656;2024-03-29T03:02:05;18.00;81.00
26964;DHT22;14521;48.148;-1.656;2024-03-29T03:05:26;18.00;81.00
26964;DHT22;14521;48.148;-1.656;2024-03-29T03:08:47;18.00;81.10
26964;DHT22;14521;48.148;-1.656;2024-03-29T03:12:29;18.00;81.10
26964;DHT22;14521;48.148;-1.656;2024-03-29T03:15:51;18.00;81.10
26964;DHT22;14521;48.148;-1.656;2024-03-29T03:19:12;18.00;81.10
26964;DHT22;14521;48.148;-1.656;2024-03-29T03:22:33;18.00;81.10
26964;DHT22;14521;48.148;-1.656;2024-03-29T03:25:59;18.00;81.10
26964;DHT22;14521;48.148;-1.656;2024-03-29T03:29:20;18.00;81.10
26964;DHT22;14521;48.148;-1.656;2024-03-29T03:32:42;18.00;81.10
26964;DHT22;14521;48.148;-1.656;2024-03-29T03:36:03;18.00;81.10
26964;DHT22;14521;48.148;-1.656;2024-03-29T03:39:24;17.90;81.10
26964;DHT22;14521;48.148;-1.656;2024-03-29T03:42:46;17.90;81.10
26964;DHT22;14521;48.148;-1.656;2024-03-29T03:46:07;18.00;81.10
26964;DHT22;14521;48.148;-1.656;2024-03-29T03:49:28;18.00;81.20
26964;DHT22;14521;48.148;-1.656;2024-03-29T03:52:49;17.90;81.10
26964;DHT22;14521;48.148;-1.656;2024-03-29T03:56:11;17.90;81.10
26964;DHT22;14521;48.148;-1.656;2024-03-29T03:59:32;17.90;81.10
26964;DHT22;14521;48.148;-1.656;2024-03-29T04:02:54;17.90;81.10
26964;DHT22;14521;48.148;-1.656;2024-03-29T04:06:15;17.90;81.10
26964;DHT22;14521;48.148;-1.656;2024-03-29T04:09:36;17.90;81.10
26964;DHT22;14521;48.148;-1.656;2024-03-29T04:12:58;17.90;81.10
26964;DHT22;14521;48.148;-1.656;2024-03-29T04:16:19;17.90;81.10
26964;DHT22;14521;48.148;-1.656;2024-03-29T04:19:40;17.90;81.10
26964;DHT22;14521;48.148;-1.656;2024-03-29T04:23:04;17.90;81.00
26964;DHT22;14521;48.148;-1.656;2024-03-29T04:26:26;17.90;81.10
26964;DHT22;14521;48.148;-1.656;2024-03-29T04:29:50;17.90;81.10
26964;DHT22;14521;48.148;-1.656;2024-03-29T04:33:12;17.90;81.10
26964;DHT22;14521;48.148;-1.656;2024-03-29T04:36:33;17.90;81.10
26964;DHT22;14521;48.148;-1.656;2024-03-29T04:39:54;17.90;81.10
26964;DHT22;14521;48.148;-1.656;2024-03-29T04:43:16;17.90;81.20
26964;DHT22;14521;48.148;-1.656;2024-03-29T04:46:37;17.90;81.20
26964;DHT22;14521;48.148;-1.656;2024-03-29T04:49:59;17.90;81.10
26964;DHT22;14521;48.148;-1.656;2024-03-29T04:53:20;17.90;81.20
26964;DHT22;14521;48.148;-1.656;2024-03-29T04:56:42;17.90;81.20
26964;DHT22;14521;48.148;-1.656;2024-03-29T05:00:03;17.90;81.20
26964;DHT22;14521;48.148;-1.656;2024-03-29T05:03:25;17.90;81.30
26964;DHT22;14521;48.148;-1.656;2024-03-29T05:06:47;17.80;82.00
26964;DHT22;14521;48.148;-1.656;2024-03-29T05:10:08;17.90;81.30
26964;DHT22;14521;48.148;-1.656;2024-03-29T05:13:30;17.90;81.20
26964;DHT22;14521;48.148;-1.656;2024-03-29T05:16:53;18.00;81.20
26964;DHT22;14521;48.148;-1.656;2024-03-29T05:20:14;18.00;81.10
26964;DHT22;14521;48.148;-1.656;2024-03-29T05:23:35;18.00;81.00
26964;DHT22;14521;48.148;-1.656;2024-03-29T05:26:57;18.00;81.00
26964;DHT22;14521;48.148;-1.656;2024-03-29T05:30:18;18.10;81.00
26964;DHT22;14521;48.148;-1.656;2024-03-29T05:33:43;18.10;81.00
26964;DHT22;14521;48.148;-1.656;2024-03-29T05:37:06;18.10;80.90
26964;DHT22;14521;48.148;-1.656;2024-03-29T05:40:28;18.10;80.80
26964;DHT22;14521;48.148;-1.656;2024-03-29T05:43:50;18.20;80.90
26964;DHT22;14521;48.148;-1.656;2024-03-29T05:47:11;18.20;80.80
26964;DHT22;14521;48.148;-1.656;2024-03-29T05:50:32;18.20;80.70
26964;DHT22;14521;48.148;-1.656;2024-03-29T05:53:55;18.20;80.70
26964;DHT22;14521;48.148;-1.656;2024-03-29T05:57:17;18.20;80.80
26964;DHT22;14521;48.148;-1.656;2024-03-29T06:00:39;18.20;80.70
26964;DHT22;14521;48.148;-1.656;2024-03-29T06:04:00;18.30;80.70
26964;DHT22;14521;48.148;-1.656;2024-03-29T06:07:26;18.30;80.70
26964;DHT22;14521;48.148;-1.656;2024-03-29T06:10:50;18.30;80.80
26964;DHT22;14521;48.148;-1.656;2024-03-29T06:14:11;18.30;80.70
26964;DHT22;14521;48.148;-1.656;2024-03-29T06:17:32;18.30;80.70
26964;DHT22;14521;48.148;-1.656;2024-03-29T06:20:55;18.40;80.80
26964;DHT22;14521;48.148;-1.656;2024-03-29T06:24:17;18.30;80.90
26964;DHT22;14521;48.148;-1.656;2024-03-29T06:27:38;18.40;81.10
26964;DHT22;14521;48.148;-1.656;2024-03-29T06:31:00;18.60;81.90
26964;DHT22;14521;48.148;-1.656;2024-03-29T06:34:23;18.70;82.60
26964;DHT22;14521;48.148;-1.656;2024-03-29T06:37:44;18.80;83.10
26964;DHT22;14521;48.148;-1.656;2024-03-29T06:41:05;18.80;83.10
26964;DHT22;14521;48.148;-1.656;2024-03-29T06:44:27;18.90;82.80
26964;DHT22;14521;48.148;-1.656;2024-03-29T06:47:48;19.00;82.90
26964;DHT22;14521;48.148;-1.656;2024-03-29T06:51:10;19.00;83.40
26964;DHT22;14521;48.148;-1.656;2024-03-29T06:54:31;19.00;82.90
26964;DHT22;14521;48.148;-1.656;2024-03-29T06:57:54;19.10;83.00
26964;DHT22;14521;48.148;-1.656;2024-03-29T07:01:15;19.10;83.40
26964;DHT22;14521;48.148;-1.656;2024-03-29T07:04:37;19.20;82.90
26964;DHT22;14521;48.148;-1.656;2024-03-29T07:07:58;19.20;83.00
26964;DHT22;14521;48.148;-1.656;2024-03-29T07:11:21;19.20;83.10
26964;DHT22;14521;48.148;-1.656;2024-03-29T07:14:42;19.00;81.00
26964;DHT22;14521;48.148;-1.656;2024-03-29T07:18:04;18.90;81.10
26964;DHT22;14521;48.148;-1.656;2024-03-29T07:21:25;18.80;81.50
26964;DHT22;14521;48.148;-1.656;2024-03-29T07:24:46;18.70;81.80
26964;DHT22;14521;48.148;-1.656;2024-03-29T07:28:08;18.70;82.20
26964;DHT22;14521;48.148;-1.656;2024-03-29T07:31:29;18.70;82.40
26964;DHT22;14521;48.148;-1.656;2024-03-29T07:34:51;18.70;82.60
26964;DHT22;14521;48.148;-1.656;2024-03-29T07:38:12;18.70;82.70
26964;DHT22;14521;48.148;-1.656;2024-03-29T07:41:34;18.60;82.60
26964;DHT22;14521;48.148;-1.656;2024-03-29T07:44:56;18.70;82.70
26964;DHT22;14521;48.148;-1.656;2024-03-29T07:48:17;18.70;82.60
26964;DHT22;14521;48.148;-1.656;2024-03-29T07:51:39;18.70;82.50
26964;DHT22;14521;48.148;-1.656;2024-03-29T07:55:00;18.70;82.70
26964;DHT22;14521;48.148;-1.656;2024-03-29T07:58:21;18.70;82.60
26964;DHT22;14521;48.148;-1.656;2024-03-29T08:01:43;18.70;82.40
26964;DHT22;14521;48.148;-1.656;2024-03-29T08:05:05;18.70;82.60
26964;DHT22;14521;48.148;-1.656;2024-03-29T08:08:27;18.70;82.70
26964;DHT22;14521;48.148;-1.656;2024-03-29T08:11:49;18.70;82.70
26964;DHT22;14521;48.148;-1.656;2024-03-29T08:15:10;18.70;82.70
26964;DHT22;14521;48.148;-1.656;2024-03-29T08:18:32;18.80;84.50
26964;DHT22;14521;48.148;-1.656;2024-03-29T08:21:54;18.90;83.50
26964;DHT22;14521;48.148;-1.656;2024-03-29T08:25:16;19.00;83.10
26964;DHT22;14521;48.148;-1.656;2024-03-29T08:28:38;19.00;82.00
26964;DHT22;14521;48.148;-1.656;2024-03-29T08:31:59;19.00;82.30
26964;DHT22;14521;48.148;-1.656;2024-03-29T08:35:21;19.10;82.60
26964;DHT22;14521;48.148;-1.656;2024-03-29T08:38:42;19.20;82.50
26964;DHT22;14521;48.148;-1.656;2024-03-29T08:42:05;19.30;82.40
26964;DHT22;14521;48.148;-1.656;2024-03-29T08:45:27;19.30;82.40
26964;DHT22;14521;48.148;-1.656;2024-03-29T08:48:49;19.30;82.70
26964;DHT22;14521;48.148;-1.656;2024-03-29T08:52:10;19.30;82.60
26964;DHT22;14521;48.148;-1.656;2024-03-29T08:55:32;19.30;82.70
26964;DHT22;14521;48.148;-1.656;2024-03-29T08:58:54;19.30;82.90
26964;DHT22;14521;48.148;-1.656;2024-03-29T09:02:15;19.30;82.90
26964;DHT22;14521;48.148;-1.656;2024-03-29T09:05:36;19.30;82.70
26964;DHT22;14521;48.148;-1.656;2024-03-29T09:08:58;19.20;82.60
26964;DHT22;14521;48.148;-1.656;2024-03-29T09:12:19;19.20;82.90
26964;DHT22;14521;48.148;-1.656;2024-03-29T09:15:41;19.20;82.60
26964;DHT22;14521;48.148;-1.656;2024-03-29T09:19:03;19.20;83.70
26964;DHT22;14521;48.148;-1.656;2024-03-29T09:22:26;19.30;85.00
26964;DHT22;14521;48.148;-1.656;2024-03-29T09:25:47;19.40;83.30
26964;DHT22;14521;48.148;-1.656;2024-03-29T09:29:08;19.40;83.70
26964;DHT22;14521;48.148;-1.656;2024-03-29T09:32:30;19.40;84.20
26964;DHT22;14521;48.148;-1.656;2024-03-29T09:35:51;19.40;83.90
26964;DHT22;14521;48.148;-1.656;2024-03-29T09:39:13;19.40;84.10
26964;DHT22;14521;48.148;-1.656;2024-03-29T09:42:34;19.40;83.60
26964;DHT22;14521;48.148;-1.656;2024-03-29T09:45:56;19.40;83.60
26964;DHT22;14521;48.148;-1.656;2024-03-29T09:49:18;19.40;81.60
26964;DHT22;14521;48.148;-1.656;2024-03-29T09:52:39;19.20;82.30
26964;DHT22;14521;48.148;-1.656;2024-03-29T09:56:06;19.20;83.20
26964;DHT22;14521;48.148;-1.656;2024-03-29T09:59:28;19.30;83.40
26964;DHT22;14521;48.148;-1.656;2024-03-29T10:02:50;19.30;83.20
26964;DHT22;14521;48.148;-1.656;2024-03-29T10:06:14;19.40;82.90
26964;DHT22;14521;48.148;-1.656;2024-03-29T10:09:36;19.40;82.40
26964;DHT22;14521;48.148;-1.656;2024-03-29T10:12:57;19.40;82.30
26964;DHT22;14521;48.148;-1.656;2024-03-29T10:16:19;19.40;82.10
26964;DHT22;14521;48.148;-1.656;2024-03-29T10:19:42;19.30;82.30
26964;DHT22;14521;48.148;-1.656;2024-03-29T10:23:03;19.20;81.30
26964;DHT22;14521;48.148;-1.656;2024-03-29T10:26:25;19.10;82.20
26964;DHT22;14521;48.148;-1.656;2024-03-29T10:29:46;19.10;82.60
26964;DHT22;14521;48.148;-1.656;2024-03-29T10:33:07;19.10;82.10
26964;DHT22;14521;48.148;-1.656;2024-03-29T10:36:30;19.10;82.00
26964;DHT22;14521;48.148;-1.656;2024-03-29T10:39:51;19.20;82.10
26964;DHT22;14521;48.148;-1.656;2024-03-29T10:43:15;19.20;81.90
26964;DHT22;14521;48.148;-1.656;2024-03-29T10:46:37;19.20;81.40
26964;DHT22;14521;48.148;-1.656;2024-03-29T10:50:02;19.20;81.60
26964;DHT22;14521;48.148;-1.656;2024-03-29T10:53:27;19.20;82.00
26964;DHT22;14521;48.148;-1.656;2024-03-29T10:56:57;19.20;81.60
26964;DHT22;14521;48.148;-1.656;2024-03-29T11:00:20;19.20;81.50
26964;DHT22;14521;48.148;-1.656;2024-03-29T11:03:45;19.00;82.00
26964;DHT22;14521;48.148;-1.656;2024-03-29T11:07:16;19.10;82.60
26964;DHT22;14521;48.148;-1.656;2024-03-29T11:10:42;19.20;83.60
26964;DHT22;14521;48.148;-1.656;2024-03-29T11:14:10;19.20;82.20
26964;DHT22;14521;48.148;-1.656;2024-03-29T11:17:34;19.20;87.00
26964;DHT22;14521;48.148;-1.656;2024-03-29T11:20:57;19.10;83.90
26964;DHT22;14521;48.148;-1.656;2024-03-29T11:24:22;19.20;85.70
26964;DHT22;14521;48.148;-1.656;2024-03-29T11:27:43;19.20;83.90
26964;DHT22;14521;48.148;-1.656;2024-03-29T11:31:09;19.20;84.40
26964;DHT22;14521;48.148;-1.656;2024-03-29T11:34:31;19.30;85.00
26964;DHT22;14521;48.148;-1.656;2024-03-29T11:37:59;19.20;84.50
26964;DHT22;14521;48.148;-1.656;2024-03-29T11:41:21;19.20;84.60
26964;DHT22;14521;48.148;-1.656;2024-03-29T11:44:44;19.20;82.70
26964;DHT22;14521;48.148;-1.656;2024-03-29T11:48:08;19.30;82.70
26964;DHT22;14521;48.148;-1.656;2024-03-29T11:51:31;19.30;83.40
26964;DHT22;14521;48.148;-1.656;2024-03-29T11:54:54;19.30;83.70
26964;DHT22;14521;48.148;-1.656;2024-03-29T11:58:15;19.30;83.50
26964;DHT22;14521;48.148;-1.656;2024-03-29T12:01:36;19.20;83.90
26964;DHT22;14521;48.148;-1.656;2024-03-29T12:05:04;19.30;85.00
26964;DHT22;14521;48.148;-1.656;2024-03-29T12:08:26;19.30;84.20
26964;DHT22;14521;48.148;-1.656;2024-03-29T12:11:48;19.20;83.70
26964;DHT22;14521;48.148;-1.656;2024-03-29T12:15:12;19.30;83.90
26964;DHT22;14521;48.148;-1.656;2024-03-29T12:18:33;19.20;83.70
26964;DHT22;14521;48.148;-1.656;2024-03-29T12:21:56;19.20;81.70
26964;DHT22;14521;48.148;-1.656;2024-03-29T12:25:20;19.20;81.60
26964;DHT22;14521;48.148;-1.656;2024-03-29T12:28:42;19.20;81.60
26964;DHT22;14521;48.148;-1.656;2024-03-29T12:32:03;19.20;82.70
26964;DHT22;14521;48.148;-1.656;2024-03-29T12:35:28;19.20;83.70
26964;DHT22;14521;48.148;-1.656;2024-03-29T12:38:50;19.20;83.40
26964;DHT22;14521;48.148;-1.656;2024-03-29T12:42:16;19.10;83.20
26964;DHT22;14521;48.148;-1.656;2024-03-29T12:45:41;19.00;83.30
26964;DHT22;14521;48.148;-1.656;2024-03-29T12:49:03;19.00;83.30
26964;DHT22;14521;48.148;-1.656;2024-03-29T12:52:24;19.00;83.40
26964;DHT22;14521;48.148;-1.656;2024-03-29T12:55:47;19.00;83.70
26964;DHT22;14521;48.148;-1.656;2024-03-29T12:59:09;19.00;83.50
26964;DHT22;14521;48.148;-1.656;2024-03-29T13:02:31;18.90;83.50
26964;DHT22;14521;48.148;-1.656;2024-03-29T13:05:52;18.90;83.30
26964;DHT22;14521;48.148;-1.656;2024-03-29T13:09:14;19.00;84.70
26964;DHT22;14521;48.148;-1.656;2024-03-29T13:12:36;19.00;84.80
26964;DHT22;14521;48.148;-1.656;2024-03-29T13:15:57;19.10;83.90
26964;DHT22;14521;48.148;-1.656;2024-03-29T13:19:19;19.10;82.20
26964;DHT22;14521;48.148;-1.656;2024-03-29T13:22:40;19.20;82.60
26964;DHT22;14521;48.148;-1.656;2024-03-29T13:26:03;19.20;82.40
26964;DHT22;14521;48.148;-1.656;2024-03-29T13:29:24;19.30;82.60
26964;DHT22;14521;48.148;-1.656;2024-03-29T13:32:46;19.30;82.60
26964;DHT22;14521;48.148;-1.656;2024-03-29T13:36:07;19.30;82.30
26964;DHT22;14521;48.148;-1.656;2024-03-29T13:39:29;19.30;81.40
26964;DHT22;14521;48.148;-1.656;2024-03-29T13:42:50;19.20;81.70
26964;DHT22;14521;48.148;-1.656;2024-03-29T13:46:12;19.20;82.40
26964;DHT22;14521;48.148;-1.656;2024-03-29T13:49:33;19.30;81.60
26964;DHT22;14521;48.148;-1.656;2024-03-29T13:52:55;19.20;81.70
26964;DHT22;14521;48.148;-1.656;2024-03-29T13:56:17;19.20;83.50
26964;DHT22;14521;48.148;-1.656;2024-03-29T13:59:38;19.20;82.40
26964;DHT22;14521;48.148;-1.656;2024-03-29T14:02:59;19.20;82.60
26964;DHT22;14521;48.148;-1.656;2024-03-29T14:06:21;19.30;81.30
26964;DHT22;14521;48.148;-1.656;2024-03-29T14:09:44;19.10;81.60
26964;DHT22;14521;48.148;-1.656;2024-03-29T14:13:05;19.10;81.80
26964;DHT22;14521;48.148;-1.656;2024-03-29T14:16:27;19.00;82.00
26964;DHT22;14521;48.148;-1.656;2024-03-29T14:19:48;19.00;82.10
26964;DHT22;14521;48.148;-1.656;2024-03-29T14:23:11;19.10;81.10
26964;DHT22;14521;48.148;-1.656;2024-03-29T14:26:35;19.20;81.30
26964;DHT22;14521;48.148;-1.656;2024-03-29T14:29:57;19.10;80.30
26964;DHT22;14521;48.148;-1.656;2024-03-29T14:33:18;19.20;80.80
26964;DHT22;14521;48.148;-1.656;2024-03-29T14:36:40;19.20;80.60
26964;DHT22;14521;48.148;-1.656;2024-03-29T14:40:01;19.20;80.70
26964;DHT22;14521;48.148;-1.656;2024-03-29T14:43:25;19.20;80.80
26964;DHT22;14521;48.148;-1.656;2024-03-29T14:46:49;19.20;80.70
26964;DHT22;14521;48.148;-1.656;2024-03-29T14:50:11;19.20;80.10
26964;DHT22;14521;48.148;-1.656;2024-03-29T14:53:32;19.20;80.40
26964;DHT22;14521;48.148;-1.656;2024-03-29T14:56:53;19.20;80.30
26964;DHT22;14521;48.148;-1.656;2024-03-29T15:00:15;19.20;81.20
26964;DHT22;14521;48.148;-1.656;2024-03-29T15:03:37;19.10;81.10
26964;DHT22;14521;48.148;-1.656;2024-03-29T15:06:59;19.00;81.60
26964;DHT22;14521;48.148;-1.656;2024-03-29T15:10:20;19.00;81.70
26964;DHT22;14521;48.148;-1.656;2024-03-29T15:13:42;19.10;81.70
26964;DHT22;14521;48.148;-1.656;2024-03-29T15:17:04;19.10;80.60
26964;DHT22;14521;48.148;-1.656;2024-03-29T15:20:25;19.10;80.50
26964;DHT22;14521;48.148;-1.656;2024-03-29T15:23:47;19.10;81.20
26964;DHT22;14521;48.148;-1.656;2024-03-29T15:27:08;19.10;80.30
26964;DHT22;14521;48.148;-1.656;2024-03-29T15:30:37;19.10;80.80
26964;DHT22;14521;48.148;-1.656;2024-03-29T15:34:03;19.20;80.30
26964;DHT22;14521;48.148;-1.656;2024-03-29T15:37:24;19.10;80.00
26964;DHT22;14521;48.148;-1.656;2024-03-29T15:40:53;19.10;80.90
26964;DHT22;14521;48.148;-1.656;2024-03-29T15:44:14;19.10;79.80
26964;DHT22;14521;48.148;-1.656;2024-03-29T15:47:37;19.00;80.50
26964;DHT22;14521;48.148;-1.656;2024-03-29T15:50:58;18.80;81.50
26964;DHT22;14521;48.148;-1.656;2024-03-29T15:54:20;18.70;81.90
26964;DHT22;14521;48.148;-1.656;2024-03-29T15:57:43;18.70;82.20
26964;DHT22;14521;48.148;-1.656;2024-03-29T16:01:05;18.60;82.10
26964;DHT22;14521;48.148;-1.656;2024-03-29T16:04:26;18.60;82.20
26964;DHT22;14521;48.148;-1.656;2024-03-29T16:07:47;18.60;82.30
26964;DHT22;14521;48.148;-1.656;2024-03-29T16:11:08;18.60;82.10
26964;DHT22;14521;48.148;-1.656;2024-03-29T16:14:30;18.60;82.90
26964;DHT22;14521;48.148;-1.656;2024-03-29T16:17:52;18.70;82.20
26964;DHT22;14521;48.148;-1.656;2024-03-29T16:21:13;18.70;81.70
26964;DHT22;14521;48.148;-1.656;2024-03-29T16:24:35;18.80;81.90
26964;DHT22;14521;48.148;-1.656;2024-03-29T16:27:56;18.80;81.80
26964;DHT22;14521;48.148;-1.656;2024-03-29T16:31:18;18.80;81.70
26964;DHT22;14521;48.148;-1.656;2024-03-29T16:34:39;18.70;81.80
26964;DHT22;14521;48.148;-1.656;2024-03-29T16:38:01;18.70;81.70
26964;DHT22;14521;48.148;-1.656;2024-03-29T16:41:23;18.70;81.60
26964;DHT22;14521;48.148;-1.656;2024-03-29T16:44:44;18.80;81.50
26964;DHT22;14521;48.148;-1.656;2024-03-29T16:48:05;18.80;81.60
26964;DHT22;14521;48.148;-1.656;2024-03-29T16:51:27;18.70;81.50
26964;DHT22;14521;48.148;-1.656;2024-03-29T16:54:48;18.80;81.60
26964;DHT22;14521;48.148;-1.656;2024-03-29T16:58:10;18.80;81.70
26964;DHT22;14521;48.148;-1.656;2024-03-29T17:01:31;18.80;81.70
26964;DHT22;14521;48.148;-1.656;2024-03-29T17:04:52;18.80;81.60
26964;DHT22;14521;48.148;-1.656;2024-03-29T17:08:14;18.70;81.70
26964;DHT22;14521;48.148;-1.656;2024-03-29T17:11:36;18.70;81.60
26964;DHT22;14521;48.148;-1.656;2024-03-29T17:14:57;18.70;81.70
26964;DHT22;14521;48.148;-1.656;2024-03-29T17:18:19;18.70;81.90
26964;DHT22;14521;48.148;-1.656;2024-03-29T17:21:40;18.70;81.90
26964;DHT22;14521;48.148;-1.656;2024-03-29T17:25:02;18.70;81.90
26964;DHT22;14521;48.148;-1.656;2024-03-29T17:28:23;18.70;81.40
26964;DHT22;14521;48.148;-1.656;2024-03-29T17:31:44;18.70;82.00
26964;DHT22;14521;48.148;-1.656;2024-03-29T17:35:06;18.70;81.80
26964;DHT22;14521;48.148;-1.656;2024-03-29T17:38:27;18.70;81.60
26964;DHT22;14521;48.148;-1.656;2024-03-29T17:41:49;18.70;81.10
26964;DHT22;14521;48.148;-1.656;2024-03-29T17:45:10;18.80;81.30
26964;DHT22;14521;48.148;-1.656;2024-03-29T17:48:31;18.90;81.20
26964;DHT22;14521;48.148;-1.656;2024-03-29T17:51:55;18.90;81.50
26964;DHT22;14521;48.148;-1.656;2024-03-29T17:55:17;18.90;81.50
26964;DHT22;14521;48.148;-1.656;2024-03-29T17:58:38;18.90;81.40
26964;DHT22;14521;48.148;-1.656;2024-03-29T18:01:59;18.90;81.20
26964;DHT22;14521;48.148;-1.656;2024-03-29T18:05:21;18.90;81.50
26964;DHT22;14521;48.148;-1.656;2024-03-29T18:08:43;18.90;81.60
26964;DHT22;14521;48.148;-1.656;2024-03-29T18:12:04;19.00;81.70
26964;DHT22;14521;48.148;-1.656;2024-03-29T18:15:26;19.00;81.70
26964;DHT22;14521;48.148;-1.656;2024-03-29T18:18:47;19.00;81.70
26964;DHT22;14521;48.148;-1.656;2024-03-29T18:22:08;19.00;81.70
26964;DHT22;14521;48.148;-1.656;2024-03-29T18:25:32;19.00;81.60
26964;DHT22;14521;48.148;-1.656;2024-03-29T18:28:53;19.00;81.70
26964;DHT22;14521;48.148;-1.656;2024-03-29T18:32:15;19.00;81.60
26964;DHT22;14521;48.148;-1.656;2024-03-29T18:35:36;18.90;81.50
26964;DHT22;14521;48.148;-1.656;2024-03-29T18:38:58;19.00;81.50
26964;DHT22;14521;48.148;-1.656;2024-03-29T18:42:19;19.00;81.50
26964;DHT22;14521;48.148;-1.656;2024-03-29T18:45:41;19.00;81.50
26964;DHT22;14521;48.148;-1.656;2024-03-29T18:49:02;19.00;81.50
26964;DHT22;14521;48.148;-1.656;2024-03-29T18:52:23;18.90;81.40
26964;DHT22;14521;48.148;-1.656;2024-03-29T18:56:01;19.00;81.30
26964;DHT22;14521;48.148;-1.656;2024-03-29T18:59:23;19.00;81.30
26964;DHT22;14521;48.148;-1.656;2024-03-29T19:02:44;19.00;81.40
26964;DHT22;14521;48.148;-1.656;2024-03-29T19:06:05;18.90;81.20
26964;DHT22;14521;48.148;-1.656;2024-03-29T19:09:27;18.90;81.20
26964;DHT22;14521;48.148;-1.656;2024-03-29T19:12:48;18.90;81.20
26964;DHT22;14521;48.148;-1.656;2024-03-29T19:16:09;18.90;81.20
26964;DHT22;14521;48.148;-1.656;2024-03-29T19:19:31;18.90;81.30
26964;DHT22;14521;48.148;-1.656;2024-03-29T19:22:52;18.90;81.20
26964;DHT22;14521;48.148;-1.656;2024-03-29T19:26:14;18.90;81.20
26964;DHT22;14521;48.148;-1.656;2024-03-29T19:29:36;18.90;81.20
26964;DHT22;14521;48.148;-1.656;2024-03-29T19:32:59;18.90;81.20
26964;DHT22;14521;48.148;-1.656;2024-03-29T19:36:21;18.90;81.20
26964;DHT22;14521;48.148;-1.656;2024-03-29T19:39:42;18.90;81.20
26964;DHT22;14521;48.148;-1.656;2024-03-29T19:43:03;18.90;81.10
26964;DHT22;14521;48.148;-1.656;2024-03-29T19:46:25;18.90;81.30
26964;DHT22;14521;48.148;-1.656;2024-03-29T19:49:46;18.80;81.20
26964;DHT22;14521;48.148;-1.656;2024-03-29T19:53:08;18.90;81.30
26964;DHT22;14521;48.148;-1.656;2024-03-29T19:56:29;18.80;81.10
26964;DHT22;14521;48.148;-1.656;2024-03-29T19:59:50;18.80;81.10
26964;DHT22;14521;48.148;-1.656;2024-03-29T20:03:13;18.80;81.10
26964;DHT22;14521;48.148;-1.656;2024-03-29T20:06:34;18.80;81.10
26964;DHT22;14521;48.148;-1.656;2024-03-29T20:09:56;18.80;81.00
26964;DHT22;14521;48.148;-1.656;2024-03-29T20:13:17;18.80;80.80
26964;DHT22;14521;48.148;-1.656;2024-03-29T20:16:38;18.80;80.90
26964;DHT22;14521;48.148;-1.656;2024-03-29T20:20:00;18.80;80.90
26964;DHT22;14521;48.148;-1.656;2024-03-29T20:23:21;18.80;80.80
26964;DHT22;14521;48.148;-1.656;2024-03-29T20:26:42;18.80;80.70
26964;DHT22;14521;48.148;-1.656;2024-03-29T20:30:04;18.80;80.60
26964;DHT22;14521;48.148;-1.656;2024-03-29T20:33:29;18.80;80.60
26964;DHT22;14521;48.148;-1.656;2024-03-29T20:36:51;18.70;80.60
26964;DHT22;14521;48.148;-1.656;2024-03-29T20:40:13;18.70;80.60
26964;DHT22;14521;48.148;-1.656;2024-03-29T20:43:35;18.70;80.60
26964;DHT22;14521;48.148;-1.656;2024-03-29T20:46:56;18.70;80.60
26964;DHT22;14521;48.148;-1.656;2024-03-29T20:50:20;18.70;80.40
26964;DHT22;14521;48.148;-1.656;2024-03-29T20:53:41;18.70;80.50